Time;durP1;ratioP1;P1;durP2;ratioP2;P2;SDS_P1;SDS_P2;PMS_P1;PMS_P2;Temp;Humidity;BMP_temperature;BMP_pressure;BME280_temperature;BME280_humidity;BME280_pressure;Samples;Min_cycle;Max_cycle;Signal;HPM_P1;HPM_P2
2023/10/18 00:01:34;;;;;;;0.10;0.10;;;;;;;;;;5021244;28;20038;-77
2023/10/18 00:04:23;;;;;;;0.10;0.10;;;;;;;;;;5024630;28;20073;-77
2023/10/18 00:07:12;;;;;;;0.10;0.10;;;;;;;;;;5016979;28;20463;-77
2023/10/18 00:09:59;;;;;;;0.10;0.10;;;;;;;;;;5027944;28;20037;-77
2023/10/18 00:12:45;;;;;;;0.10;0.10;;;;;;;;;;5028825;28;20144;-77
2023/10/18 00:15:31;;;;;;;0.10;0.10;;;;;;;;;;5030949;28;20123;-78
2023/10/18 00:18:16;;;;;;;0.10;0.10;;;;;;;;;;5029889;28;20081;-77
2023/10/18 00:21:03;;;;;;;0.10;0.10;;;;;;;;;;5026036;28;20887;-77
2023/10/18 00:23:49;;;;;;;0.10;0.10;;;;;;;;;;5030339;28;21066;-77
2023/10/18 00:26:35;;;;;;;0.10;0.10;;;;;;;;;;5031651;28;20069;-77
2023/10/18 00:29:21;;;;;;;0.10;0.10;;;;;;;;;;5027990;28;20045;-78
2023/10/18 00:32:07;;;;;;;0.10;0.10;;;;;;;;;;5029676;28;20044;-74
2023/10/18 00:34:54;;;;;;;0.10;0.10;;;;;;;;;;5029186;28;20132;-77
2023/10/18 00:37:41;;;;;;;0.10;0.10;;;;;;;;;;5029764;28;20031;-77
2023/10/18 00:43:28;;;;;;;0.10;0.10;;;;;;;;;;5019227;28;20033;-77
2023/10/18 00:46:14;;;;;;;0.10;0.10;;;;;;;;;;5019140;28;20598;-77
2023/10/18 00:49:00;;;;;;;0.10;0.10;;;;;;;;;;5004736;28;20037;-77
2023/10/18 00:51:49;;;;;;;0.10;0.10;;;;;;;;;;5020830;28;20519;-77
2023/10/18 00:54:36;;;;;;;0.10;0.10;;;;;;;;;;5018730;28;20041;-76
2023/10/18 00:57:24;;;;;;;0.10;0.10;;;;;;;;;;5018037;28;20033;-77
2023/10/18 01:00:12;;;;;;;0.10;0.10;;;;;;;;;;5017146;28;20040;-77
2023/10/18 01:02:59;;;;;;;0.10;0.10;;;;;;;;;;5015773;28;20048;-77
2023/10/18 01:06:04;;;;;;;0.10;0.10;;;;;;;;;;5024779;28;20033;-76
2023/10/18 01:08:50;;;;;;;0.10;0.10;;;;;;;;;;5009378;28;20039;-76
2023/10/18 01:11:37;;;;;;;0.10;0.10;;;;;;;;;;5018175;28;20033;-76
2023/10/18 01:14:25;;;;;;;0.10;0.10;;;;;;;;;;5012181;28;20068;-76
2023/10/18 01:17:11;;;;;;;0.10;0.10;;;;;;;;;;5012059;28;20329;-76
2023/10/18 01:19:58;;;;;;;0.10;0.10;;;;;;;;;;5009349;28;20029;-76
2023/10/18 01:22:44;;;;;;;0.10;0.10;;;;;;;;;;5012398;28;20037;-76
2023/10/18 01:25:30;;;;;;;0.10;0.10;;;;;;;;;;5010187;28;20741;-76
2023/10/18 01:28:20;;;;;;;0.10;0.10;;;;;;;;;;4997583;28;20121;-76
2023/10/18 01:31:07;;;;;;;0.10;0.10;;;;;;;;;;5010355;28;20041;-77
2023/10/18 01:33:53;;;;;;;0.10;0.10;;;;;;;;;;5009485;28;20127;-76
2023/10/18 01:36:39;;;;;;;0.10;0.10;;;;;;;;;;5011550;28;20535;-76
2023/10/18 01:39:29;;;;;;;0.10;0.10;;;;;;;;;;5009801;28;20980;-77
2023/10/18 01:42:14;;;;;;;0.10;0.10;;;;;;;;;;4997500;28;20064;-77
2023/10/18 01:45:00;;;;;;;0.10;0.10;;;;;;;;;;5007593;28;20595;-77
2023/10/18 01:47:48;;;;;;;0.10;0.10;;;;;;;;;;5008152;28;20037;-77
2023/10/18 01:50:34;;;;;;;0.10;0.10;;;;;;;;;;4984444;28;20041;-77
2023/10/18 01:53:23;;;;;;;0.10;0.10;;;;;;;;;;5009122;28;20045;-77
2023/10/18 01:56:10;;;;;;;0.10;0.10;;;;;;;;;;5009957;28;20144;-77
2023/10/18 01:58:55;;;;;;;0.10;0.10;;;;;;;;;;5000569;28;20041;-77
2023/10/18 02:01:44;;;;;;;0.10;0.10;;;;;;;;;;4998578;28;20041;-76
2023/10/18 02:04:30;;;;;;;0.10;0.10;;;;;;;;;;5001174;28;20030;-76
2023/10/18 02:07:17;;;;;;;0.10;0.10;;;;;;;;;;4999223;28;20038;-76
2023/10/18 02:10:03;;;;;;;0.10;0.10;;;;;;;;;;5004577;28;20567;-76
2023/10/18 02:12:49;;;;;;;0.10;0.10;;;;;;;;;;4999406;28;20041;-76
2023/10/18 02:15:35;;;;;;;0.10;0.10;;;;;;;;;;5025456;28;20581;-76
2023/10/18 02:18:21;;;;;;;0.10;0.10;;;;;;;;;;5014504;28;20427;-77
2023/10/18 02:21:07;;;;;;;0.10;0.10;;;;;;;;;;5028489;28;20199;-77
2023/10/18 02:23:53;;;;;;;0.10;0.10;;;;;;;;;;5010875;28;20037;-76
2023/10/18 02:27:03;;;;;;;0.10;0.10;;;;;;;;;;5019188;28;20645;-76
2023/10/18 02:29:48;;;;;;;0.10;0.10;;;;;;;;;;5030307;28;20784;-76
2023/10/18 02:32:34;;;;;;;0.10;0.10;;;;;;;;;;5029128;28;20539;-76
2023/10/18 02:35:21;;;;;;;0.10;0.10;;;;;;;;;;5027375;28;20060;-76
2023/10/18 02:38:12;;;;;;;0.10;0.10;;;;;;;;;;5031631;28;20029;-76
2023/10/18 02:40:57;;;;;;;0.20;0.20;;;;;;;;;;5030882;28;20037;-76
2023/10/18 02:43:45;;;;;;;0.10;0.10;;;;;;;;;;5017932;28;20861;-76
2023/10/18 02:46:33;;;;;;;0.10;0.10;;;;;;;;;;5026970;28;20040;-76
2023/10/18 02:49:18;;;;;;;0.10;0.10;;;;;;;;;;5029701;28;20372;-76
2023/10/18 02:52:05;;;;;;;0.10;0.10;;;;;;;;;;5030697;28;20047;-76
2023/10/18 02:54:51;;;;;;;0.10;0.10;;;;;;;;;;5031984;28;20847;-76
2023/10/18 02:57:37;;;;;;;0.10;0.10;;;;;;;;;;5032502;28;20159;-76
2023/10/18 03:00:25;;;;;;;0.10;0.10;;;;;;;;;;5030202;28;20044;-76
2023/10/18 03:03:12;;;;;;;0.10;0.10;;;;;;;;;;5007627;28;20033;-76
2023/10/18 03:06:04;;;;;;;0.10;0.10;;;;;;;;;;5019535;28;20037;-76
2023/10/18 03:08:51;;;;;;;0.10;0.10;;;;;;;;;;5017230;28;20124;-76
2023/10/18 03:11:39;;;;;;;0.10;0.10;;;;;;;;;;5030019;28;20510;-76
2023/10/18 03:15:08;;;;;;;0.10;0.10;;;;;;;;;;5026558;28;20050;-76
2023/10/18 03:17:37;;;;;;;0.10;0.10;;;;;;;;;;5014052;28;20748;-76
2023/10/18 03:20:23;;;;;;;0.10;0.10;;;;;;;;;;5009962;28;20119;-76
2023/10/18 03:23:08;;;;;;;0.10;0.10;;;;;;;;;;4994350;28;20037;-76
2023/10/18 03:26:03;;;;;;;0.10;0.10;;;;;;;;;;5015578;28;20036;-76
2023/10/18 03:28:51;;;;;;;0.10;0.10;;;;;;;;;;5000940;28;20127;-76
2023/10/18 03:31:47;;;;;;;0.10;0.10;;;;;;;;;;5001794;28;20519;-76
2023/10/18 03:34:41;;;;;;;0.10;0.10;;;;;;;;;;5013562;28;20042;-75
2023/10/18 03:37:28;;;;;;;0.10;0.10;;;;;;;;;;5014240;28;20220;-76
2023/10/18 03:40:36;;;;;;;0.10;0.10;;;;;;;;;;5010507;28;20125;-77
2023/10/18 03:43:26;;;;;;;0.10;0.10;;;;;;;;;;5005977;28;20032;-77
2023/10/18 03:49:01;;;;;;;0.10;0.10;;;;;;;;;;5012246;28;20499;-77
2023/10/18 03:51:49;;;;;;;0.10;0.10;;;;;;;;;;4995665;28;20037;-78
2023/10/18 03:54:45;;;;;;;0.10;0.10;;;;;;;;;;4998400;28;20076;-77
2023/10/18 03:57:41;;;;;;;0.10;0.10;;;;;;;;;;5010612;28;20033;-77
2023/10/18 04:03:15;;;;;;;0.10;0.10;;;;;;;;;;4973765;28;20133;-76
2023/10/18 04:06:05;;;;;;;0.10;0.10;;;;;;;;;;5000042;28;20707;-76
2023/10/18 04:08:51;;;;;;;0.10;0.10;;;;;;;;;;5012618;28;20045;-76
2023/10/18 04:11:37;;;;;;;0.10;0.10;;;;;;;;;;5000123;28;20076;-76
2023/10/18 04:14:23;;;;;;;0.10;0.10;;;;;;;;;;4998979;28;20053;-76
2023/10/18 04:17:18;;;;;;;0.10;0.10;;;;;;;;;;5015503;28;20034;-76
2023/10/18 04:20:22;;;;;;;0.10;0.10;;;;;;;;;;5006146;28;20034;-77
2023/10/18 04:23:25;;;;;;;0.10;0.10;;;;;;;;;;5014438;28;20758;-76
2023/10/18 04:26:18;;;;;;;0.10;0.10;;;;;;;;;;5015492;28;20951;-76
2023/10/18 04:29:10;;;;;;;0.10;0.10;;;;;;;;;;5012870;28;20165;-76
2023/10/18 04:31:56;;;;;;;0.10;0.10;;;;;;;;;;5014278;28;20919;-77
2023/10/18 04:34:44;;;;;;;0.10;0.10;;;;;;;;;;5012319;28;20192;-77
2023/10/18 04:37:30;;;;;;;0.10;0.10;;;;;;;;;;5016202;28;20030;-77
2023/10/18 04:40:37;;;;;;;0.10;0.10;;;;;;;;;;5013330;28;20044;-76
2023/10/18 04:43:27;;;;;;;0.10;0.10;;;;;;;;;;5014892;28;20933;-77
2023/10/18 04:51:44;;;;;;;0.10;0.10;;;;;;;;;;5015157;28;20039;-77
2023/10/18 04:57:22;;;;;;;;;;;;;;;;;;5013823;28;20148;-76
2023/10/18 05:03:33;;;;;;;0.10;0.10;;;;;;;;;;4916917;28;20173;-77
2023/10/18 05:06:19;;;;;;;0.10;0.10;;;;;;;;;;4942409;28;20047;-76
2023/10/18 05:09:05;;;;;;;0.10;0.10;;;;;;;;;;5000756;28;20041;-76
2023/10/18 05:11:55;;;;;;;0.10;0.10;;;;;;;;;;5010579;28;20065;-76
2023/10/18 05:14:50;;;;;;;0.10;0.10;;;;;;;;;;5018207;28;20578;-77
2023/10/18 05:17:42;;;;;;;0.10;0.10;;;;;;;;;;5030217;28;20033;-76
2023/10/18 05:20:41;;;;;;;0.10;0.10;;;;;;;;;;5031337;28;20032;-76
2023/10/18 05:23:32;;;;;;;0.20;0.20;;;;;;;;;;5030215;28;20042;-77
2023/10/18 05:26:18;;;;;;;0.10;0.10;;;;;;;;;;5031271;28;20044;-76
2023/10/18 05:29:05;;;;;;;0.10;0.10;;;;;;;;;;5030270;28;20130;-77
2023/10/18 05:32:07;;;;;;;0.10;0.10;;;;;;;;;;5029692;28;20053;-77
2023/10/18 05:35:00;;;;;;;0.10;0.10;;;;;;;;;;5030553;28;20622;-77
2023/10/18 05:37:50;;;;;;;0.10;0.10;;;;;;;;;;5031242;28;20029;-77
2023/10/18 05:43:22;;;;;;;0.10;0.10;;;;;;;;;;5033262;28;20076;-77
2023/10/18 05:46:08;;;;;;;0.10;0.10;;;;;;;;;;5032944;28;20510;-77
2023/10/18 05:48:57;;;;;;;0.10;0.10;;;;;;;;;;5028855;28;20044;-77
2023/10/18 05:54:49;;;;;;;0.10;0.10;;;;;;;;;;5032711;28;20179;-77
2023/10/18 05:57:35;;;;;;;0.10;0.10;;;;;;;;;;5028287;28;20048;-78
2023/10/18 06:00:20;;;;;;;0.10;0.10;;;;;;;;;;5026324;28;20029;-77
2023/10/18 06:03:07;;;;;;;0.10;0.10;;;;;;;;;;5004231;28;20127;-77
2023/10/18 06:05:57;;;;;;;0.10;0.10;;;;;;;;;;5026336;28;20170;-76
2023/10/18 06:08:43;;;;;;;0.10;0.10;;;;;;;;;;5033253;28;20599;-77
2023/10/18 06:11:29;;;;;;;0.10;0.10;;;;;;;;;;5030339;28;20840;-78
2023/10/18 06:14:16;;;;;;;0.10;0.10;;;;;;;;;;5031335;28;20051;-77
2023/10/18 06:17:12;;;;;;;0.10;0.10;;;;;;;;;;5030651;28;20119;-77
2023/10/18 06:19:57;;;;;;;0.10;0.10;;;;;;;;;;5031092;28;20036;-77
2023/10/18 06:22:50;;;;;;;0.10;0.10;;;;;;;;;;5032290;28;20025;-78
2023/10/18 06:25:37;;;;;;;0.10;0.10;;;;;;;;;;5034247;28;20752;-77
2023/10/18 06:28:26;;;;;;;0.10;0.10;;;;;;;;;;5032974;28;20083;-78
2023/10/18 06:31:12;;;;;;;0.10;0.10;;;;;;;;;;5033896;28;20064;-78
2023/10/18 06:34:04;;;;;;;0.10;0.10;;;;;;;;;;5034751;28;20033;-78
2023/10/18 06:36:52;;;;;;;;;;;;;;;;;;5036407;28;20390;-77
2023/10/18 06:39:38;;;;;;;0.10;0.10;;;;;;;;;;5034890;28;19924;-77
2023/10/18 06:42:26;;;;;;;0.10;0.10;;;;;;;;;;5023726;28;20484;-77
2023/10/18 06:45:15;;;;;;;0.10;0.10;;;;;;;;;;5034753;28;20025;-77
2023/10/18 06:48:03;;;;;;;0.10;0.10;;;;;;;;;;5035144;28;20033;-77
2023/10/18 06:50:49;;;;;;;0.10;0.10;;;;;;;;;;5034926;28;20069;-78
2023/10/18 06:53:38;;;;;;;0.10;0.10;;;;;;;;;;5029972;28;20043;-78
2023/10/18 06:56:23;;;;;;;0.10;0.10;;;;;;;;;;5034494;28;20523;-78
2023/10/18 06:59:11;;;;;;;0.10;0.10;;;;;;;;;;5030544;28;20076;-78
2023/10/18 07:02:00;;;;;;;0.10;0.10;;;;;;;;;;5009715;28;20770;-78
2023/10/18 07:04:52;;;;;;;0.10;0.10;;;;;;;;;;5032554;28;20033;-78
2023/10/18 07:07:38;;;;;;;0.15;0.15;;;;;;;;;;5023752;28;20530;-78
2023/10/18 07:10:52;;;;;;;0.10;0.10;;;;;;;;;;5033610;28;20041;-78
2023/10/18 07:13:46;;;;;;;0.10;0.10;;;;;;;;;;5033706;28;20133;-78
2023/10/18 07:19:26;;;;;;;0.10;0.10;;;;;;;;;;5035482;28;20045;-77
2023/10/18 07:22:17;;;;;;;0.10;0.10;;;;;;;;;;5032410;28;20112;-77
2023/10/18 07:25:08;;;;;;;0.10;0.10;;;;;;;;;;5033326;28;20041;-77
2023/10/18 07:27:55;;;;;;;0.10;0.10;;;;;;;;;;5031812;28;21138;-77
2023/10/18 07:30:44;;;;;;;0.10;0.10;;;;;;;;;;5032501;28;20052;-78
2023/10/18 07:33:30;;;;;;;0.10;0.10;;;;;;;;;;5033416;28;20025;-77
2023/10/18 07:36:18;;;;;;;0.10;0.10;;;;;;;;;;5034082;28;20029;-77
2023/10/18 07:39:04;;;;;;;0.10;0.10;;;;;;;;;;5031959;28;20048;-77
2023/10/18 07:41:55;;;;;;;0.10;0.10;;;;;;;;;;5034934;28;20111;-77
2023/10/18 07:44:43;;;;;;;0.10;0.10;;;;;;;;;;5033728;28;20641;-77
2023/10/18 07:47:32;;;;;;;0.10;0.10;;;;;;;;;;5032551;28;20141;-77
2023/10/18 07:53:22;;;;;;;0.10;0.10;;;;;;;;;;5031430;28;20102;-78
2023/10/18 07:56:08;;;;;;;0.10;0.10;;;;;;;;;;5034993;28;20040;-77
2023/10/18 07:58:54;;;;;;;0.10;0.10;;;;;;;;;;5035338;28;20043;-78
2023/10/18 08:04:36;;;;;;;0.10;0.10;;;;;;;;;;5026906;28;20795;-77
2023/10/18 08:07:22;;;;;;;0.10;0.10;;;;;;;;;;5031049;28;20672;-77
2023/10/18 08:10:08;;;;;;;0.10;0.10;;;;;;;;;;5029488;28;20064;-77
2023/10/18 08:13:16;;;;;;;0.10;0.10;;;;;;;;;;5031785;28;20044;-77
2023/10/18 08:16:10;;;;;;;0.10;0.10;;;;;;;;;;5032207;28;20745;-77
2023/10/18 08:19:02;;;;;;;0.10;0.10;;;;;;;;;;5031735;28;20037;-77
2023/10/18 08:22:02;;;;;;;0.10;0.10;;;;;;;;;;5031067;28;20278;-77
2023/10/18 08:24:51;;;;;;;0.10;0.10;;;;;;;;;;5028231;28;20076;-77
2023/10/18 08:27:41;;;;;;;0.13;0.13;;;;;;;;;;5032302;28;20051;-77
2023/10/18 08:31:02;;;;;;;0.10;0.10;;;;;;;;;;5032374;28;20037;-78
2023/10/18 08:33:44;;;;;;;0.10;0.10;;;;;;;;;;5032764;28;20029;-78
2023/10/18 08:36:30;;;;;;;0.10;0.10;;;;;;;;;;5027448;28;20029;-77
2023/10/18 08:39:16;;;;;;;0.10;0.10;;;;;;;;;;5032644;28;20128;-77
2023/10/18 08:42:05;;;;;;;0.10;0.10;;;;;;;;;;5032194;28;20737;-77
2023/10/18 08:44:55;;;;;;;0.10;0.10;;;;;;;;;;5031242;28;20051;-77
2023/10/18 08:47:46;;;;;;;0.10;0.10;;;;;;;;;;5031986;28;20735;-78
2023/10/18 08:50:33;;;;;;;0.10;0.10;;;;;;;;;;5029589;28;20127;-78
2023/10/18 08:53:22;;;;;;;0.10;0.10;;;;;;;;;;5032484;28;20092;-77
2023/10/18 08:56:09;;;;;;;0.10;0.10;;;;;;;;;;5033471;28;20029;-77
2023/10/18 08:58:58;;;;;;;0.10;0.10;;;;;;;;;;5031583;28;20072;-78
2023/10/18 09:04:55;;;;;;;0.10;0.10;;;;;;;;;;5029390;28;20562;-78
2023/10/18 09:07:44;;;;;;;0.10;0.10;;;;;;;;;;5031334;28;20701;-78
2023/10/18 09:16:12;;;;;;;0.10;0.10;;;;;;;;;;5030665;28;20172;-77
2023/10/18 09:18:58;;;;;;;0.20;0.20;;;;;;;;;;5031504;28;20036;-78
2023/10/18 09:21:51;;;;;;;0.10;0.10;;;;;;;;;;5032386;28;20388;-79
2023/10/18 09:24:43;;;;;;;0.15;0.15;;;;;;;;;;5029089;28;20032;-78
2023/10/18 09:27:29;;;;;;;0.20;0.20;;;;;;;;;;5032596;28;20044;-78
2023/10/18 09:30:18;;;;;;;0.10;0.10;;;;;;;;;;5027387;28;20099;-78
2023/10/18 09:33:04;;;;;;;0.10;0.10;;;;;;;;;;5032367;28;20039;-78
2023/10/18 09:35:51;;;;;;;0.20;0.20;;;;;;;;;;5016090;28;20037;-78
2023/10/18 09:38:39;;;;;;;0.10;0.10;;;;;;;;;;5031787;28;20029;-78
2023/10/18 09:41:30;;;;;;;0.10;0.10;;;;;;;;;;5029863;28;20574;-78
2023/10/18 09:44:18;;;;;;;0.10;0.10;;;;;;;;;;5016812;28;20044;-78
2023/10/18 09:47:04;;;;;;;0.10;0.10;;;;;;;;;;5033217;28;20032;-79
2023/10/18 09:49:50;;;;;;;0.10;0.10;;;;;;;;;;5028000;28;20041;-78
2023/10/18 09:52:47;;;;;;;0.10;0.10;;;;;;;;;;5034585;28;20112;-79
2023/10/18 09:55:33;;;;;;;0.10;0.10;;;;;;;;;;5028525;28;20143;-78
2023/10/18 09:58:19;;;;;;;0.10;0.10;;;;;;;;;;5027644;28;20078;-78
2023/10/18 10:01:13;;;;;;;0.10;0.10;;;;;;;;;;5031119;28;20118;-78
2023/10/18 10:04:03;;;;;;;0.10;0.10;;;;;;;;;;4999231;28;20076;-78
2023/10/18 10:07:27;;;;;;;0.10;0.10;;;;;;;;;;5032249;28;20850;-79
2023/10/18 10:10:07;;;;;;;0.20;0.20;;;;;;;;;;5030839;28;20038;-79
2023/10/18 10:13:05;;;;;;;0.10;0.10;;;;;;;;;;5036967;28;20952;-80
2023/10/18 10:15:57;;;;;;;0.10;0.10;;;;;;;;;;5036160;28;20668;-77
2023/10/18 10:18:47;;;;;;;0.10;0.10;;;;;;;;;;5033692;28;20621;-78
2023/10/18 10:21:34;;;;;;;0.13;0.13;;;;;;;;;;5032975;28;20041;-77
2023/10/18 10:24:33;;;;;;;0.20;0.20;;;;;;;;;;5034363;28;20037;-77
2023/10/18 10:27:27;;;;;;;0.20;0.20;;;;;;;;;;5035144;28;20094;-79
2023/10/18 10:33:12;;;;;;;0.10;0.10;;;;;;;;;;5034873;28;20131;-77
2023/10/18 10:36:04;;;;;;;0.17;0.17;;;;;;;;;;5031843;28;20029;-79
2023/10/18 10:38:56;;;;;;;0.20;0.20;;;;;;;;;;4995212;28;20073;-77
2023/10/18 10:41:46;;;;;;;0.10;0.10;;;;;;;;;;5027211;28;20204;-79
2023/10/18 10:44:38;;;;;;;0.20;0.20;;;;;;;;;;5029930;28;20094;-78
2023/10/18 10:47:29;;;;;;;0.20;0.20;;;;;;;;;;5021124;28;20090;-77
2023/10/18 10:50:33;;;;;;;0.20;0.20;;;;;;;;;;5032062;28;20037;-79
2023/10/18 10:53:32;;;;;;;0.10;0.10;;;;;;;;;;5033403;28;20863;-78
2023/10/18 10:56:17;;;;;;;0.10;0.10;;;;;;;;;;5029786;28;20087;-78
2023/10/18 11:04:57;;;;;;;0.13;0.13;;;;;;;;;;5024796;28;20052;-78
2023/10/18 11:07:43;;;;;;;0.13;0.13;;;;;;;;;;5030061;28;20511;-78
2023/10/18 11:10:33;;;;;;;0.10;0.10;;;;;;;;;;5030469;28;20076;-78
2023/10/18 11:13:22;;;;;;;0.20;0.20;;;;;;;;;;5032261;28;20031;-79
2023/10/18 11:16:11;;;;;;;0.10;0.10;;;;;;;;;;5034430;28;20055;-80
2023/10/18 11:19:00;;;;;;;0.20;0.20;;;;;;;;;;5030876;28;20092;-79
2023/10/18 11:21:46;;;;;;;0.10;0.10;;;;;;;;;;5031838;28;20072;-79
2023/10/18 11:24:31;;;;;;;0.10;0.10;;;;;;;;;;5031345;28;20067;-80
2023/10/18 11:27:18;;;;;;;0.10;0.10;;;;;;;;;;5031811;28;20040;-79
2023/10/18 11:30:22;;;;;;;0.10;0.10;;;;;;;;;;5031436;28;20159;-79
2023/10/18 11:33:15;;;;;;;0.10;0.10;;;;;;;;;;5033688;28;20045;-78
2023/10/18 11:36:04;;;;;;;0.10;0.10;;;;;;;;;;5028984;28;20120;-79
2023/10/18 11:42:17;;;;;;;0.10;0.10;;;;;;;;;;4978750;28;20033;-79
2023/10/18 11:45:03;;;;;;;0.10;0.10;;;;;;;;;;4976605;28;20044;-79
2023/10/18 11:47:50;;;;;;;0.15;0.15;;;;;;;;;;5025978;28;20025;-79
2023/10/18 11:50:45;;;;;;;0.10;0.10;;;;;;;;;;5031090;28;20496;-80
2023/10/18 11:53:33;;;;;;;0.10;0.10;;;;;;;;;;5033736;28;20082;-78
2023/10/18 11:56:19;;;;;;;0.10;0.10;;;;;;;;;;5032431;28;20045;-79
2023/10/18 11:59:05;;;;;;;0.10;0.10;;;;;;;;;;5031008;28;20040;-78
2023/10/18 12:01:54;;;;;;;0.00;0.00;;;;;;;;;;5031641;28;20043;-79
2023/10/18 12:04:40;;;;;;;0.10;0.10;;;;;;;;;;5027170;28;20065;-78
2023/10/18 12:07:26;;;;;;;0.10;0.10;;;;;;;;;;4998112;28;20305;-78
2023/10/18 12:10:25;;;;;;;0.10;0.10;;;;;;;;;;5030030;28;20646;-79
2023/10/18 12:13:14;;;;;;;0.10;0.10;;;;;;;;;;5027309;28;20957;-78
2023/10/18 12:16:00;;;;;;;0.10;0.10;;;;;;;;;;5020796;28;20547;-78
2023/10/18 12:18:46;;;;;;;0.10;0.10;;;;;;;;;;5035999;28;20115;-78
2023/10/18 12:21:31;;;;;;;0.10;0.10;;;;;;;;;;5029425;28;20045;-78
2023/10/18 12:24:21;;;;;;;0.10;0.10;;;;;;;;;;5028819;28;20116;-78
2023/10/18 12:27:21;;;;;;;0.10;0.10;;;;;;;;;;5032958;28;20174;-78
2023/10/18 12:30:26;;;;;;;0.10;0.10;;;;;;;;;;5029552;28;20033;-78
2023/10/18 12:33:19;;;;;;;0.10;0.10;;;;;;;;;;5028232;28;20043;-78
2023/10/18 12:36:07;;;;;;;0.10;0.10;;;;;;;;;;5030119;28;20050;-79
2023/10/18 12:38:58;;;;;;;0.10;0.10;;;;;;;;;;5026161;28;20087;-78
2023/10/18 12:41:43;;;;;;;0.10;0.10;;;;;;;;;;5030196;28;20060;-78
2023/10/18 12:44:29;;;;;;;0.10;0.10;;;;;;;;;;5032573;28;20032;-78
2023/10/18 12:47:19;;;;;;;0.10;0.10;;;;;;;;;;5030853;28;20060;-78
2023/10/18 12:50:05;;;;;;;0.10;0.10;;;;;;;;;;5031023;28;20045;-79
2023/10/18 12:53:06;;;;;;;0.10;0.10;;;;;;;;;;5034167;28;20521;-79
2023/10/18 12:55:58;;;;;;;0.10;0.10;;;;;;;;;;5029639;28;20040;-79
2023/10/18 12:59:22;;;;;;;0.10;0.10;;;;;;;;;;5032067;28;20032;-80
2023/10/18 13:02:05;;;;;;;0.10;0.10;;;;;;;;;;5030851;28;20119;-79
2023/10/18 13:04:59;;;;;;;0.10;0.10;;;;;;;;;;5018777;28;20040;-79
2023/10/18 13:07:45;;;;;;;0.10;0.10;;;;;;;;;;5001848;28;20048;-79
2023/10/18 13:10:31;;;;;;;0.10;0.10;;;;;;;;;;5027032;28;20067;-79
2023/10/18 13:13:17;;;;;;;0.10;0.10;;;;;;;;;;5029376;28;20036;-78
2023/10/18 13:16:03;;;;;;;0.10;0.10;;;;;;;;;;5019018;28;20041;-79
2023/10/18 13:18:48;;;;;;;0.20;0.20;;;;;;;;;;5032865;28;20033;-78
2023/10/18 13:21:39;;;;;;;0.20;0.20;;;;;;;;;;5027742;28;20074;-79
2023/10/18 13:27:15;;;;;;;0.10;0.10;;;;;;;;;;5031231;28;20036;-80
2023/10/18 13:30:03;;;;;;;0.10;0.10;;;;;;;;;;5032313;28;20043;-80
2023/10/18 13:32:50;;;;;;;0.10;0.10;;;;;;;;;;5032448;28;20079;-80
2023/10/18 13:35:38;;;;;;;0.10;0.10;;;;;;;;;;5031218;28;20056;-79
2023/10/18 13:38:24;;;;;;;0.10;0.10;;;;;;;;;;5028916;28;20037;-80
2023/10/18 13:41:12;;;;;;;0.00;0.00;;;;;;;;;;5030326;28;20108;-79
2023/10/18 13:43:58;;;;;;;0.10;0.10;;;;;;;;;;5034457;28;20068;-80
2023/10/18 13:46:44;;;;;;;0.10;0.10;;;;;;;;;;5032583;28;20036;-79
2023/10/18 13:49:30;;;;;;;0.10;0.10;;;;;;;;;;5030237;28;20128;-79
2023/10/18 13:52:16;;;;;;;0.10;0.10;;;;;;;;;;5033469;28;20044;-78
2023/10/18 13:55:02;;;;;;;0.10;0.10;;;;;;;;;;5028916;28;20479;-79
2023/10/18 13:57:49;;;;;;;0.10;0.10;;;;;;;;;;5028492;28;20033;-80
2023/10/18 14:00:35;;;;;;;0.10;0.10;;;;;;;;;;5027562;28;20303;-80
2023/10/18 14:03:23;;;;;;;0.10;0.10;;;;;;;;;;5020613;28;20052;-77
2023/10/18 14:06:12;;;;;;;0.10;0.10;;;;;;;;;;5027520;28;20472;-79
2023/10/18 14:08:58;;;;;;;0.10;0.10;;;;;;;;;;5029213;28;20025;-79
2023/10/18 14:11:44;;;;;;;0.10;0.10;;;;;;;;;;5030725;28;20041;-79
2023/10/18 14:14:31;;;;;;;0.10;0.10;;;;;;;;;;5022638;28;20755;-79
2023/10/18 14:17:17;;;;;;;0.10;0.10;;;;;;;;;;5010908;28;20033;-80
2023/10/18 14:20:10;;;;;;;0.10;0.10;;;;;;;;;;5008411;28;20149;-78
2023/10/18 14:22:56;;;;;;;0.10;0.10;;;;;;;;;;5007499;28;20099;-80
2023/10/18 14:25:43;;;;;;;0.10;0.10;;;;;;;;;;4997012;28;20037;-79
2023/10/18 14:28:31;;;;;;;0.10;0.10;;;;;;;;;;5011095;28;20044;-80
2023/10/18 14:31:17;;;;;;;0.10;0.10;;;;;;;;;;5010328;28;20070;-80
2023/10/18 14:34:03;;;;;;;0.10;0.10;;;;;;;;;;4979245;28;20037;-80
2023/10/18 14:36:50;;;;;;;0.10;0.10;;;;;;;;;;5006857;28;20025;-79
2023/10/18 14:39:36;;;;;;;0.10;0.10;;;;;;;;;;5009274;28;20094;-80
2023/10/18 14:42:22;;;;;;;0.10;0.10;;;;;;;;;;4998745;28;20036;-79
2023/10/18 14:45:10;;;;;;;0.10;0.10;;;;;;;;;;5010716;28;20479;-79
2023/10/18 14:47:55;;;;;;;0.10;0.10;;;;;;;;;;5012791;28;20041;-80
2023/10/18 14:50:41;;;;;;;0.10;0.10;;;;;;;;;;5004915;28;20164;-79
2023/10/18 14:53:27;;;;;;;0.10;0.10;;;;;;;;;;5000893;28;20049;-80
2023/10/18 14:56:12;;;;;;;0.10;0.10;;;;;;;;;;5013692;28;20034;-79
2023/10/18 14:58:58;;;;;;;0.10;0.10;;;;;;;;;;5011813;28;20033;-80
2023/10/18 15:01:44;;;;;;;0.10;0.10;;;;;;;;;;5010491;28;20040;-79
2023/10/18 15:04:31;;;;;;;0.10;0.10;;;;;;;;;;5010255;28;20045;-78
2023/10/18 15:07:19;;;;;;;0.10;0.10;;;;;;;;;;5015871;28;20613;-79
2023/10/18 15:10:08;;;;;;;0.10;0.10;;;;;;;;;;5009087;28;20073;-79
2023/10/18 15:12:54;;;;;;;0.10;0.10;;;;;;;;;;5010731;28;20025;-79
2023/10/18 15:15:39;;;;;;;0.10;0.10;;;;;;;;;;5012220;28;20050;-79
2023/10/18 15:18:26;;;;;;;0.10;0.10;;;;;;;;;;5014941;28;20124;-79
2023/10/18 15:21:14;;;;;;;0.10;0.10;;;;;;;;;;5012709;28;20036;-80
2023/10/18 15:24:00;;;;;;;0.10;0.10;;;;;;;;;;5006962;28;20040;-79
2023/10/18 15:26:45;;;;;;;0.10;0.10;;;;;;;;;;5009767;28;20034;-79
2023/10/18 15:29:31;;;;;;;0.10;0.10;;;;;;;;;;5002021;28;20470;-79
2023/10/18 15:32:17;;;;;;;0.10;0.10;;;;;;;;;;4995936;28;21443;-79
2023/10/18 15:35:05;;;;;;;0.15;0.15;;;;;;;;;;5013324;28;20040;-79
2023/10/18 15:37:51;;;;;;;0.03;0.03;;;;;;;;;;5015051;28;20594;-79
2023/10/18 15:40:38;;;;;;;0.10;0.10;;;;;;;;;;5011310;28;20605;-78
2023/10/18 15:43:26;;;;;;;0.10;0.10;;;;;;;;;;5014911;28;20102;-78
2023/10/18 15:46:13;;;;;;;0.10;0.10;;;;;;;;;;5011204;28;20043;-79
2023/10/18 15:48:59;;;;;;;0.10;0.10;;;;;;;;;;5012673;28;20040;-79
2023/10/18 15:51:45;;;;;;;0.10;0.10;;;;;;;;;;5012227;28;20072;-79
2023/10/18 15:54:30;;;;;;;0.10;0.10;;;;;;;;;;5012729;28;20037;-79
2023/10/18 15:57:16;;;;;;;0.10;0.10;;;;;;;;;;5011994;28;20124;-79
2023/10/18 16:00:07;;;;;;;0.10;0.10;;;;;;;;;;5002770;28;20044;-78
2023/10/18 16:02:58;;;;;;;0.10;0.10;;;;;;;;;;5003352;28;20044;-79
2023/10/18 16:05:44;;;;;;;0.10;0.10;;;;;;;;;;5009983;28;20037;-79
2023/10/18 16:08:30;;;;;;;0.10;0.10;;;;;;;;;;5012109;28;20041;-78
2023/10/18 16:11:16;;;;;;;0.10;0.10;;;;;;;;;;5004950;28;20911;-78
2023/10/18 16:14:03;;;;;;;0.10;0.10;;;;;;;;;;5008512;28;20034;-77
2023/10/18 16:16:48;;;;;;;0.10;0.10;;;;;;;;;;5033117;28;20024;-79
2023/10/18 16:19:36;;;;;;;0.00;0.00;;;;;;;;;;5032300;28;20041;-82
2023/10/18 16:22:22;;;;;;;0.10;0.10;;;;;;;;;;5039586;28;20119;-78
2023/10/18 16:25:10;;;;;;;0.10;0.10;;;;;;;;;;5036651;28;20043;-78
2023/10/18 16:27:55;;;;;;;0.10;0.10;;;;;;;;;;5033237;28;20435;-79
2023/10/18 16:30:41;;;;;;;0.10;0.10;;;;;;;;;;5024744;28;20084;-79
2023/10/18 16:33:28;;;;;;;0.10;0.10;;;;;;;;;;5031650;28;20044;-78
2023/10/18 16:36:16;;;;;;;0.10;0.10;;;;;;;;;;5020078;28;20423;-80
2023/10/18 16:39:04;;;;;;;0.10;0.10;;;;;;;;;;5019379;28;20067;-79
2023/10/18 16:41:49;;;;;;;0.10;0.10;;;;;;;;;;5033280;28;20068;-79
2023/10/18 16:44:35;;;;;;;0.05;0.05;;;;;;;;;;5031004;28;20041;-79
2023/10/18 16:47:22;;;;;;;0.10;0.10;;;;;;;;;;5031788;28;20029;-79
2023/10/18 16:50:08;;;;;;;0.00;0.00;;;;;;;;;;5019758;28;20049;-80
2023/10/18 16:52:54;;;;;;;0.10;0.10;;;;;;;;;;5032961;28;20350;-79
2023/10/18 16:55:40;;;;;;;0.10;0.10;;;;;;;;;;5035491;28;20044;-79
2023/10/18 16:58:26;;;;;;;0.10;0.10;;;;;;;;;;5029878;28;20142;-79
2023/10/18 17:01:18;;;;;;;0.10;0.10;;;;;;;;;;5032252;28;20033;-79
2023/10/18 17:04:04;;;;;;;0.10;0.10;;;;;;;;;;5033442;28;20115;-79
2023/10/18 17:06:50;;;;;;;0.10;0.10;;;;;;;;;;5035799;28;20821;-79
2023/10/18 17:09:35;;;;;;;0.00;0.00;;;;;;;;;;5034725;28;20087;-79
2023/10/18 17:12:21;;;;;;;0.10;0.10;;;;;;;;;;5031154;28;20037;-79
2023/10/18 17:15:10;;;;;;;0.10;0.10;;;;;;;;;;5031929;28;20137;-78
2023/10/18 17:17:56;;;;;;;0.10;0.10;;;;;;;;;;5033601;28;20391;-79
2023/10/18 17:20:41;;;;;;;0.10;0.10;;;;;;;;;;5001298;28;20159;-80
2023/10/18 17:23:28;;;;;;;0.10;0.10;;;;;;;;;;5028665;28;20480;-79
2023/10/18 17:26:17;;;;;;;0.10;0.10;;;;;;;;;;5034229;28;20080;-79
2023/10/18 17:29:03;;;;;;;0.10;0.10;;;;;;;;;;5019581;28;20138;-80
2023/10/18 17:31:49;;;;;;;0.10;0.10;;;;;;;;;;5031878;28;20076;-79
2023/10/18 17:34:35;;;;;;;0.10;0.10;;;;;;;;;;5026574;28;20052;-79
2023/10/18 17:37:21;;;;;;;0.10;0.10;;;;;;;;;;5032716;28;20601;-79
2023/10/18 17:40:08;;;;;;;0.10;0.10;;;;;;;;;;5028856;28;20025;-79
2023/10/18 17:42:54;;;;;;;0.10;0.10;;;;;;;;;;5030826;28;20120;-79
2023/10/18 17:45:40;;;;;;;0.10;0.10;;;;;;;;;;5033057;28;20209;-80
2023/10/18 17:48:28;;;;;;;0.10;0.10;;;;;;;;;;5000435;28;20563;-78
2023/10/18 17:51:16;;;;;;;0.10;0.10;;;;;;;;;;5029776;28;20098;-78